Time;durP1;ratioP1;P1;durP2;ratioP2;P2;SDS_P1;SDS_P2;PMS_P1;PMS_P2;Temp;Humidity;BMP_temperature;BMP_pressure;BME280_temperature;BME280_humidity;BME280_pressure;Samples;Min_cycle;Max_cycle;Signal;HPM_P1;HPM_P2
2023/07/18 00:01:22;;;;;;;6.32;3.40;;;;;;;;;;5092967;28;20423;-83
2023/07/18 00:03:50;;;;;;;8.05;3.03;;;;;;;;;;5092678;28;20054;-83
2023/07/18 00:06:18;;;;;;;4.07;2.78;;;;;;;;;;5093631;28;20098;-84
2023/07/18 00:08:45;;;;;;;5.97;3.47;;;;;;;;;;5092939;28;20499;-83
2023/07/18 00:11:13;;;;;;;5.15;3.20;;;;;;;;;;5093998;28;20553;-80
2023/07/18 00:13:40;;;;;;;7.22;3.38;;;;;;;;;;5091805;28;20098;-82
2023/07/18 00:16:08;;;;;;;6.80;3.38;;;;;;;;;;5092213;28;20066;-82
2023/07/18 00:18:35;;;;;;;6.03;2.90;;;;;;;;;;5092542;28;20040;-82
2023/07/18 00:21:05;;;;;;;6.30;3.10;;;;;;;;;;5093181;28;20101;-83
2023/07/18 00:23:32;;;;;;;2.90;2.58;;;;;;;;;;5092721;28;20139;-82
2023/07/18 00:25:59;;;;;;;2.80;2.53;;;;;;;;;;5093083;28;20109;-83
2023/07/18 00:28:28;;;;;;;6.40;3.08;;;;;;;;;;5092077;28;20074;-82
2023/07/18 00:30:55;;;;;;;6.93;3.30;;;;;;;;;;5092282;28;20059;-81
2023/07/18 00:33:23;;;;;;;3.47;3.00;;;;;;;;;;5092107;28;20465;-82
2023/07/18 00:35:51;;;;;;;4.75;2.88;;;;;;;;;;5091909;28;20048;-81
2023/07/18 00:38:20;;;;;;;7.40;3.95;;;;;;;;;;5093410;28;20491;-80
2023/07/18 00:40:50;;;;;;;8.45;3.35;;;;;;;;;;5093488;28;20048;-83
2023/07/18 00:43:17;;;;;;;9.30;3.47;;;;;;;;;;5092170;28;20048;-83
2023/07/18 00:45:48;;;;;;;4.10;3.08;;;;;;;;;;5091695;28;20458;-81
2023/07/18 00:48:15;;;;;;;3.05;2.83;;;;;;;;;;5091510;28;20056;-81
2023/07/18 00:50:43;;;;;;;5.13;3.33;;;;;;;;;;5092512;28;20594;-82
2023/07/18 00:53:10;;;;;;;4.72;3.67;;;;;;;;;;5093252;28;20044;-80
2023/07/18 00:55:38;;;;;;;8.98;3.17;;;;;;;;;;5095839;28;20113;-83
2023/07/18 00:58:05;;;;;;;4.90;3.15;;;;;;;;;;5100465;28;20082;-83
2023/07/18 01:00:32;;;;;;;5.43;3.15;;;;;;;;;;5099813;28;20074;-83
2023/07/18 01:03:00;;;;;;;5.65;3.03;;;;;;;;;;5099954;28;20097;-83
2023/07/18 01:05:27;;;;;;;6.07;3.13;;;;;;;;;;5099737;28;20052;-83
2023/07/18 01:07:54;;;;;;;6.72;3.35;;;;;;;;;;5099869;28;20105;-83
2023/07/18 01:10:23;;;;;;;5.28;3.85;;;;;;;;;;5100415;28;20048;-82
2023/07/18 01:12:52;;;;;;;5.03;3.72;;;;;;;;;;5098140;28;20048;-82
2023/07/18 01:15:20;;;;;;;3.63;3.20;;;;;;;;;;5098222;28;20044;-82
2023/07/18 01:17:47;;;;;;;5.32;3.63;;;;;;;;;;5097602;28;20070;-83
2023/07/18 01:20:18;;;;;;;4.50;3.28;;;;;;;;;;5098854;28;20044;-82
2023/07/18 01:22:46;;;;;;;4.45;3.35;;;;;;;;;;5097340;28;20127;-83
2023/07/18 01:25:16;;;;;;;4.38;3.28;;;;;;;;;;5096962;28;20419;-83
2023/07/18 01:27:47;;;;;;;6.68;3.80;;;;;;;;;;5095876;28;20044;-81
2023/07/18 01:30:15;;;;;;;5.40;3.40;;;;;;;;;;5096575;28;20052;-80
2023/07/18 01:32:42;;;;;;;7.65;3.58;;;;;;;;;;5095368;28;20052;-83
2023/07/18 01:35:10;;;;;;;6.03;3.65;;;;;;;;;;5097083;28;20070;-82
2023/07/18 01:37:38;;;;;;;6.68;3.63;;;;;;;;;;5095441;28;20466;-82
2023/07/18 01:40:06;;;;;;;4.90;3.53;;;;;;;;;;5095018;28;20486;-82
2023/07/18 01:42:33;;;;;;;5.03;3.45;;;;;;;;;;5096497;28;20105;-82
2023/07/18 01:45:02;;;;;;;8.30;3.80;;;;;;;;;;5096185;28;20125;-81
2023/07/18 01:47:31;;;;;;;9.57;3.65;;;;;;;;;;5094876;28;20044;-81
2023/07/18 01:50:03;;;;;;;7.55;3.25;;;;;;;;;;5094878;28;20059;-81
2023/07/18 01:52:31;;;;;;;5.32;3.70;;;;;;;;;;5094269;28;20090;-83
2023/07/18 01:55:00;;;;;;;4.50;3.45;;;;;;;;;;5095800;28;20384;-82
2023/07/18 01:57:46;;;;;;;5.25;3.42;;;;;;;;;;5095469;28;20051;-80
2023/07/18 02:00:18;;;;;;;5.10;3.42;;;;;;;;;;5094273;28;20048;-82
2023/07/18 02:02:48;;;;;;;5.10;3.87;;;;;;;;;;5094670;28;20135;-80
2023/07/18 02:05:16;;;;;;;7.25;3.22;;;;;;;;;;5094586;28;20117;-82
2023/07/18 02:07:44;;;;;;;6.22;3.80;;;;;;;;;;5093360;28;20047;-82
2023/07/18 02:10:11;;;;;;;5.05;3.58;;;;;;;;;;5094526;28;20048;-82
2023/07/18 02:12:38;;;;;;;3.70;3.40;;;;;;;;;;5094186;28;20044;-81
2023/07/18 02:15:06;;;;;;;5.18;3.78;;;;;;;;;;5093447;28;20048;-82
2023/07/18 02:17:34;;;;;;;7.93;3.30;;;;;;;;;;5093036;28;20044;-83
2023/07/18 02:20:05;;;;;;;9.13;3.83;;;;;;;;;;5093158;28;20139;-82
2023/07/18 02:22:36;;;;;;;6.32;3.92;;;;;;;;;;5094751;28;20048;-82
2023/07/18 02:25:04;;;;;;;6.68;4.30;;;;;;;;;;5094585;28;20058;-82
2023/07/18 02:27:39;;;;;;;9.63;3.90;;;;;;;;;;5092996;28;20138;-82
2023/07/18 02:30:11;;;;;;;5.35;3.80;;;;;;;;;;5093354;28;20102;-81
2023/07/18 02:32:39;;;;;;;8.13;3.83;;;;;;;;;;5094097;28;20423;-81
2023/07/18 02:35:07;;;;;;;5.88;3.85;;;;;;;;;;5094250;28;20151;-84
2023/07/18 02:37:34;;;;;;;5.93;3.60;;;;;;;;;;5099103;28;20048;-83
2023/07/18 02:40:09;;;;;;;7.45;3.70;;;;;;;;;;5097516;28;20405;-82
2023/07/18 02:42:38;;;;;;;6.70;3.45;;;;;;;;;;5096977;28;20467;-83
2023/07/18 02:45:08;;;;;;;6.68;3.78;;;;;;;;;;5097732;28;20060;-83
2023/07/18 02:47:36;;;;;;;5.78;4.05;;;;;;;;;;5098226;28;20058;-82
2023/07/18 02:50:04;;;;;;;6.53;3.65;;;;;;;;;;5097793;28;20044;-82
2023/07/18 02:52:31;;;;;;;5.07;4.22;;;;;;;;;;5095518;28;20063;-82
2023/07/18 02:54:59;;;;;;;5.60;4.07;;;;;;;;;;5095869;28;20066;-82
2023/07/18 02:57:26;;;;;;;9.55;3.95;;;;;;;;;;5096982;28;20078;-82
2023/07/18 02:59:53;;;;;;;4.65;3.85;;;;;;;;;;5094966;28;20055;-82
2023/07/18 03:02:21;;;;;;;7.70;4.18;;;;;;;;;;5094446;28;20052;-82
2023/07/18 03:04:48;;;;;;;5.90;4.00;;;;;;;;;;5096012;28;20461;-81
2023/07/18 03:07:17;;;;;;;5.40;3.67;;;;;;;;;;5094384;28;20044;-81
2023/07/18 03:09:45;;;;;;;5.63;3.85;;;;;;;;;;5094069;28;20051;-82
2023/07/18 03:12:12;;;;;;;6.70;3.95;;;;;;;;;;5094142;28;20510;-81
2023/07/18 03:14:40;;;;;;;4.63;3.58;;;;;;;;;;5094498;28;20044;-80
2023/07/18 03:17:07;;;;;;;5.55;4.13;;;;;;;;;;5092458;28;20044;-82
2023/07/18 03:19:35;;;;;;;7.47;4.45;;;;;;;;;;5093083;28;20048;-82
2023/07/18 03:22:02;;;;;;;8.52;4.10;;;;;;;;;;5092928;28;20078;-82
2023/07/18 03:24:30;;;;;;;10.75;4.30;;;;;;;;;;5095211;28;20052;-81
2023/07/18 03:26:57;;;;;;;5.97;4.35;;;;;;;;;;5092493;28;20155;-82
2023/07/18 03:29:24;;;;;;;10.02;4.47;;;;;;;;;;5093729;28;20499;-82
2023/07/18 03:31:51;;;;;;;6.32;3.80;;;;;;;;;;5093544;28;20539;-82
2023/07/18 03:34:19;;;;;;;7.82;4.32;;;;;;;;;;5092201;28;20055;-82
2023/07/18 03:36:46;;;;;;;8.10;4.35;;;;;;;;;;5093502;28;20040;-83
2023/07/18 03:39:13;;;;;;;8.30;4.93;;;;;;;;;;5093385;28;20052;-83
2023/07/18 03:41:41;;;;;;;7.65;4.50;;;;;;;;;;5093637;28;20047;-83
2023/07/18 03:44:08;;;;;;;5.13;4.00;;;;;;;;;;5093320;28;20060;-80
2023/07/18 03:46:36;;;;;;;8.25;4.10;;;;;;;;;;5092970;28;20052;-82
2023/07/18 03:49:03;;;;;;;6.70;4.55;;;;;;;;;;5091901;28;20058;-82
2023/07/18 03:51:30;;;;;;;12.13;7.75;;;;;;;;;;5091823;28;20405;-82
2023/07/18 03:54:03;;;;;;;24.05;15.13;;;;;;;;;;5091932;28;20127;-83
2023/07/18 03:56:31;;;;;;;33.85;25.08;;;;;;;;;;5108740;28;20052;-80
2023/07/18 03:58:58;;;;;;;24.75;16.25;;;;;;;;;;5108117;28;20052;-81
2023/07/18 04:01:26;;;;;;;15.10;8.13;;;;;;;;;;5112523;28;20403;-82
2023/07/18 04:03:53;;;;;;;7.93;5.85;;;;;;;;;;5113515;28;20048;-82
2023/07/18 04:06:21;;;;;;;9.10;6.43;;;;;;;;;;5112384;28;20049;-82
2023/07/18 04:08:48;;;;;;;5.88;4.45;;;;;;;;;;5112173;28;20052;-83
2023/07/18 04:11:16;;;;;;;8.07;5.80;;;;;;;;;;5113282;28;20048;-80
2023/07/18 04:13:44;;;;;;;5.95;3.70;;;;;;;;;;5112146;28;20131;-83
2023/07/18 04:16:11;;;;;;;7.38;4.40;;;;;;;;;;5117837;28;20040;-83
2023/07/18 04:18:39;;;;;;;4.47;3.92;;;;;;;;;;5117502;28;20050;-83
2023/07/18 04:21:06;;;;;;;6.22;3.88;;;;;;;;;;5116328;28;20414;-83
2023/07/18 04:23:34;;;;;;;11.45;4.70;;;;;;;;;;5115925;28;20075;-83
2023/07/18 04:26:02;;;;;;;7.18;3.88;;;;;;;;;;5114693;28;20063;-83
2023/07/18 04:28:34;;;;;;;5.18;3.95;;;;;;;;;;5119252;28;20078;-82
2023/07/18 04:31:01;;;;;;;5.20;3.80;;;;;;;;;;5121108;28;20052;-82
2023/07/18 04:33:33;;;;;;;5.43;4.07;;;;;;;;;;5121204;28;20067;-83
2023/07/18 04:36:00;;;;;;;5.70;4.50;;;;;;;;;;5121276;28;20048;-83
2023/07/18 04:38:28;;;;;;;4.05;3.45;;;;;;;;;;5119458;28;20044;-82
2023/07/18 04:40:55;;;;;;;6.88;3.75;;;;;;;;;;5118529;28;20048;-83
2023/07/18 04:43:22;;;;;;;6.53;3.85;;;;;;;;;;5118300;28;20065;-84
2023/07/18 04:45:50;;;;;;;5.78;3.63;;;;;;;;;;5118004;28;20100;-83
2023/07/18 04:48:19;;;;;;;3.17;2.97;;;;;;;;;;5118328;28;20051;-83
2023/07/18 04:50:47;;;;;;;6.00;3.58;;;;;;;;;;5119404;28;20173;-83
2023/07/18 04:53:14;;;;;;;5.90;3.80;;;;;;;;;;5118897;28;20079;-83
2023/07/18 04:55:41;;;;;;;7.03;3.80;;;;;;;;;;5117086;28;20052;-84
2023/07/18 04:58:09;;;;;;;5.55;3.72;;;;;;;;;;5118837;28;20468;-85
2023/07/18 05:00:36;;;;;;;3.33;3.03;;;;;;;;;;5116960;28;20505;-81
2023/07/18 05:03:05;;;;;;;9.40;3.78;;;;;;;;;;5116876;28;20055;-84
2023/07/18 05:05:32;;;;;;;4.03;3.15;;;;;;;;;;5115745;28;20085;-83
2023/07/18 05:07:59;;;;;;;8.88;3.67;;;;;;;;;;5117709;28;20044;-82
2023/07/18 05:10:27;;;;;;;5.80;3.10;;;;;;;;;;5117190;28;20122;-82
2023/07/18 05:12:54;;;;;;;4.50;3.30;;;;;;;;;;5115256;28;20047;-83
2023/07/18 05:15:22;;;;;;;5.15;3.25;;;;;;;;;;5115634;28;20104;-82
2023/07/18 05:17:49;;;;;;;7.88;3.53;;;;;;;;;;5116531;28;20047;-83
2023/07/18 05:20:17;;;;;;;3.90;2.92;;;;;;;;;;5116720;28;20047;-82
2023/07/18 05:22:45;;;;;;;5.40;3.15;;;;;;;;;;5115771;28;20522;-83
2023/07/18 05:25:14;;;;;;;5.82;2.83;;;;;;;;;;5117355;28;20051;-80
2023/07/18 05:27:42;;;;;;;6.90;3.13;;;;;;;;;;5115601;28;20419;-83
2023/07/18 05:30:16;;;;;;;12.18;3.95;;;;;;;;;;5116090;28;20044;-83
2023/07/18 05:32:44;;;;;;;10.27;3.88;;;;;;;;;;5115962;28;20048;-81
2023/07/18 05:35:15;;;;;;;7.28;2.97;;;;;;;;;;5115848;28;20047;-83
2023/07/18 05:37:44;;;;;;;3.80;2.60;;;;;;;;;;5115826;28;20423;-83
2023/07/18 05:40:12;;;;;;;7.97;3.33;;;;;;;;;;5115068;28;20100;-83
2023/07/18 05:42:39;;;;;;;11.18;5.05;;;;;;;;;;5115649;28;20511;-83
2023/07/18 05:45:07;;;;;;;5.75;2.60;;;;;;;;;;5115585;28;20048;-82
2023/07/18 05:47:35;;;;;;;9.27;4.30;;;;;;;;;;5113653;28;20055;-82
2023/07/18 05:50:05;;;;;;;3.30;2.55;;;;;;;;;;5113640;28;20127;-82
2023/07/18 05:52:32;;;;;;;2.42;2.22;;;;;;;;;;5113535;28;20056;-82
2023/07/18 05:55:00;;;;;;;5.75;2.75;;;;;;;;;;5119009;28;20120;-82
2023/07/18 05:57:27;;;;;;;2.42;2.00;;;;;;;;;;5119935;28;20051;-84
2023/07/18 05:59:54;;;;;;;1.80;1.67;;;;;;;;;;5118457;28;20081;-83
2023/07/18 06:02:21;;;;;;;2.30;2.00;;;;;;;;;;5119760;28;20048;-84
2023/07/18 06:04:49;;;;;;;2.67;1.95;;;;;;;;;;5118524;28;20078;-84
2023/07/18 06:07:16;;;;;;;2.78;2.00;;;;;;;;;;5119460;28;20077;-84
2023/07/18 06:09:43;;;;;;;4.45;2.58;;;;;;;;;;5116543;28;20052;-84
2023/07/18 06:12:12;;;;;;;2.85;2.55;;;;;;;;;;5117614;28;20472;-84
2023/07/18 06:14:39;;;;;;;3.58;2.58;;;;;;;;;;5118471;28;20046;-83
2023/07/18 06:17:07;;;;;;;5.97;2.80;;;;;;;;;;5117787;28;20047;-83
2023/07/18 06:19:34;;;;;;;2.85;2.20;;;;;;;;;;5115437;28;20495;-83
2023/07/18 06:22:03;;;;;;;5.18;2.67;;;;;;;;;;5115858;28;20051;-83
2023/07/18 06:24:30;;;;;;;5.03;2.47;;;;;;;;;;5117325;28;20082;-84
2023/07/18 06:26:57;;;;;;;4.70;2.60;;;;;;;;;;5116042;28;20113;-83
2023/07/18 06:29:24;;;;;;;4.97;2.20;;;;;;;;;;5114760;28;20499;-84
2023/07/18 06:31:56;;;;;;;7.97;2.83;;;;;;;;;;5114530;28;20255;-83
2023/07/18 06:34:23;;;;;;;3.40;2.25;;;;;;;;;;5114526;28;20052;-81
2023/07/18 06:36:51;;;;;;;30.08;5.82;;;;;;;;;;5115680;28;20127;-83
2023/07/18 06:39:18;;;;;;;17.08;4.82;;;;;;;;;;5114060;28;20060;-81
2023/07/18 06:41:45;;;;;;;25.17;5.47;;;;;;;;;;5113689;28;20073;-83
2023/07/18 06:44:14;;;;;;;8.10;2.88;;;;;;;;;;5113812;28;20411;-81
2023/07/18 06:46:42;;;;;;;8.65;3.15;;;;;;;;;;5115290;27;20430;-83
2023/07/18 06:49:10;;;;;;;11.23;2.92;;;;;;;;;;5114394;28;20465;-79
2023/07/18 06:51:37;;;;;;;23.48;3.58;;;;;;;;;;5113212;28;20051;-79
2023/07/18 06:54:04;;;;;;;15.85;3.47;;;;;;;;;;5112960;28;20052;-81
2023/07/18 06:56:32;;;;;;;17.00;3.55;;;;;;;;;;5112854;28;20048;-80
2023/07/18 06:58:59;;;;;;;15.10;3.45;;;;;;;;;;5112435;28;20460;-81
2023/07/18 07:01:26;;;;;;;9.55;3.92;;;;;;;;;;5112839;28;20097;-80
2023/07/18 07:03:55;;;;;;;9.60;3.00;;;;;;;;;;5113989;27;20445;-82
2023/07/18 07:06:23;;;;;;;7.40;2.75;;;;;;;;;;5112103;28;20079;-79
2023/07/18 07:08:51;;;;;;;7.20;2.65;;;;;;;;;;5112154;28;20055;-81
2023/07/18 07:11:18;;;;;;;3.92;2.72;;;;;;;;;;5112133;28;20074;-81
2023/07/18 07:13:46;;;;;;;5.65;1.90;;;;;;;;;;5113446;28;20067;-83
2023/07/18 07:16:13;;;;;;;6.63;2.22;;;;;;;;;;5111099;28;20048;-81
2023/07/18 07:18:40;;;;;;;4.00;2.40;;;;;;;;;;5113729;28;20082;-81
2023/07/18 07:21:07;;;;;;;5.40;2.00;;;;;;;;;;5111952;28;20913;-83
2023/07/18 07:23:35;;;;;;;2.17;1.60;;;;;;;;;;5113174;28;20116;-83
2023/07/18 07:26:02;;;;;;;1.35;1.17;;;;;;;;;;5113110;28;20052;-83
2023/07/18 07:28:29;;;;;;;2.17;1.50;;;;;;;;;;5113711;28;20052;-80
2023/07/18 07:30:56;;;;;;;1.38;1.27;;;;;;;;;;5112326;28;20051;-82
2023/07/18 07:33:25;;;;;;;2.13;1.63;;;;;;;;;;5114646;28;20130;-83
2023/07/18 07:35:53;;;;;;;1.50;0.98;;;;;;;;;;5119327;28;20067;-84
2023/07/18 07:38:20;;;;;;;1.30;1.20;;;;;;;;;;5119909;28;20069;-81
2023/07/18 07:40:47;;;;;;;2.92;1.00;;;;;;;;;;5119618;28;20055;-83
2023/07/18 07:43:14;;;;;;;1.73;0.80;;;;;;;;;;5119344;28;20048;-83
2023/07/18 07:45:42;;;;;;;1.80;0.90;;;;;;;;;;5117244;28;20051;-78
2023/07/18 07:48:09;;;;;;;2.03;1.27;;;;;;;;;;5116976;28;20051;-83
2023/07/18 07:50:36;;;;;;;2.40;1.20;;;;;;;;;;5118142;28;20074;-82
2023/07/18 07:53:04;;;;;;;3.63;1.30;;;;;;;;;;5117124;28;20052;-80
2023/07/18 07:55:31;;;;;;;1.25;1.15;;;;;;;;;;5119515;28;20100;-83
2023/07/18 07:57:59;;;;;;;1.80;1.20;;;;;;;;;;5117357;28;20494;-81
2023/07/18 08:00:26;;;;;;;6.28;1.20;;;;;;;;;;5116790;28;20043;-82
2023/07/18 08:02:54;;;;;;;1.48;1.00;;;;;;;;;;5118002;28;20054;-83
2023/07/18 08:05:21;;;;;;;4.47;1.20;;;;;;;;;;5119895;28;20133;-84
2023/07/18 08:07:49;;;;;;;1.20;1.10;;;;;;;;;;5119804;28;20073;-83
2023/07/18 08:10:17;;;;;;;3.38;1.38;;;;;;;;;;5119126;28;20043;-81
2023/07/18 08:12:44;;;;;;;2.15;1.10;;;;;;;;;;5117406;28;20403;-83
2023/07/18 08:15:11;;;;;;;4.38;1.13;;;;;;;;;;5118776;28;20055;-80
2023/07/18 08:17:39;;;;;;;1.50;1.38;;;;;;;;;;5118277;28;20126;-82
2023/07/18 08:20:08;;;;;;;3.45;1.40;;;;;;;;;;5117390;28;20410;-82
2023/07/18 08:22:35;;;;;;;2.85;1.17;;;;;;;;;;5117690;28;20092;-82
2023/07/18 08:25:03;;;;;;;2.80;1.30;;;;;;;;;;5117218;28;20550;-82
2023/07/18 08:27:31;;;;;;;1.10;0.93;;;;;;;;;;5117120;28;20048;-80
2023/07/18 08:29:58;;;;;;;2.95;1.45;;;;;;;;;;5115957;28;20048;-81
2023/07/18 08:32:25;;;;;;;1.13;0.98;;;;;;;;;;5116621;28;20047;-83
2023/07/18 08:34:56;;;;;;;2.25;1.10;;;;;;;;;;5117894;28;20044;-81
2023/07/18 08:37:23;;;;;;;2.08;1.20;;;;;;;;;;5116019;28;20055;-82
2023/07/18 08:39:50;;;;;;;1.60;1.30;;;;;;;;;;5115440;28;20411;-81
2023/07/18 08:42:20;;;;;;;1.30;1.20;;;;;;;;;;5116007;28;20044;-80
2023/07/18 08:44:49;;;;;;;2.22;1.50;;;;;;;;;;5115232;28;20564;-80
2023/07/18 08:47:16;;;;;;;5.93;1.45;;;;;;;;;;5116590;28;20047;-81
2023/07/18 08:49:44;;;;;;;2.22;1.10;;;;;;;;;;5115297;28;20101;-81
2023/07/18 08:52:11;;;;;;;46.38;5.30;;;;;;;;;;5117120;28;20054;-80
2023/07/18 08:54:39;;;;;;;3.88;2.20;;;;;;;;;;5115119;28;20047;-80
2023/07/18 08:57:06;;;;;;;11.10;2.13;;;;;;;;;;5115364;28;20048;-80
2023/07/18 08:59:34;;;;;;;7.45;2.40;;;;;;;;;;5115236;28;20051;-80
2023/07/18 09:02:01;;;;;;;5.90;1.52;;;;;;;;;;5115177;28;20565;-80
2023/07/18 09:04:28;;;;;;;3.28;1.30;;;;;;;;;;5117158;27;20135;-80
2023/07/18 09:06:59;;;;;;;1.67;1.33;;;;;;;;;;5115931;28;20055;-82
2023/07/18 09:09:27;;;;;;;2.05;1.17;;;;;;;;;;5117363;28;20052;-80
2023/07/18 09:11:58;;;;;;;3.38;1.23;;;;;;;;;;5114820;28;20043;-80
2023/07/18 09:14:34;;;;;;;4.90;1.42;;;;;;;;;;5120719;28;20419;-82
2023/07/18 09:17:05;;;;;;;3.92;1.50;;;;;;;;;;5123025;28;20043;-81
2023/07/18 09:19:37;;;;;;;1.35;1.25;;;;;;;;;;5120506;28;20059;-81
2023/07/18 09:22:10;;;;;;;1.75;0.95;;;;;;;;;;5125250;28;20056;-82
2023/07/18 09:24:38;;;;;;;1.55;1.23;;;;;;;;;;5124476;28;20052;-82
2023/07/18 09:27:06;;;;;;;3.13;1.48;;;;;;;;;;5120793;28;20055;-82
2023/07/18 09:29:33;;;;;;;6.30;1.88;;;;;;;;;;5121747;28;20051;-82
2023/07/18 09:32:01;;;;;;;3.00;1.40;;;;;;;;;;5120717;28;20495;-82
2023/07/18 09:34:29;;;;;;;1.92;1.30;;;;;;;;;;5119726;28;20047;-81
2023/07/18 09:36:58;;;;;;;3.28;1.15;;;;;;;;;;5121758;28;20518;-82
2023/07/18 09:39:25;;;;;;;1.75;1.27;;;;;;;;;;5120788;28;20048;-81
2023/07/18 09:41:53;;;;;;;5.07;2.00;;;;;;;;;;5119275;28;20051;-82
2023/07/18 09:44:22;;;;;;;3.22;1.00;;;;;;;;;;5121300;28;20073;-80
2023/07/18 09:47:00;;;;;;;1.63;1.00;;;;;;;;;;5119321;28;20072;-83
2023/07/18 09:49:28;;;;;;;3.05;1.10;;;;;;;;;;5117090;28;20487;-83
2023/07/18 09:52:03;;;;;;;1.00;1.00;;;;;;;;;;5116441;28;20047;-82
2023/07/18 09:54:31;;;;;;;4.85;1.30;;;;;;;;;;5114744;28;20048;-82
2023/07/18 09:57:00;;;;;;;4.43;1.45;;;;;;;;;;5118170;28;20043;-83
2023/07/18 09:59:27;;;;;;;2.13;1.42;;;;;;;;;;5116931;28;20051;-81
2023/07/18 10:01:55;;;;;;;3.03;1.25;;;;;;;;;;5116542;28;20047;-82
2023/07/18 10:04:23;;;;;;;4.40;2.15;;;;;;;;;;5117535;28;20077;-80
2023/07/18 10:06:52;;;;;;;3.67;1.40;;;;;;;;;;5116623;28;20047;-80
2023/07/18 10:09:22;;;;;;;4.88;1.85;;;;;;;;;;5125401;28;20073;-81
2023/07/18 10:11:59;;;;;;;3.78;1.75;;;;;;;;;;5127321;28;20051;-80
2023/07/18 10:14:30;;;;;;;1.83;1.25;;;;;;;;;;5123545;28;20108;-83
2023/07/18 10:17:04;;;;;;;1.73;1.45;;;;;;;;;;5125669;28;20055;-82
2023/07/18 10:19:46;;;;;;;2.00;1.50;;;;;;;;;;5118207;28;20071;-81
2023/07/18 10:22:24;;;;;;;6.57;1.55;;;;;;;;;;5122129;28;20048;-82
2023/07/18 10:24:51;;;;;;;2.65;1.33;;;;;;;;;;5121362;28;20058;-83
2023/07/18 10:27:24;;;;;;;1.45;1.23;;;;;;;;;;5119723;28;20427;-84
2023/07/18 10:30:04;;;;;;;2.22;1.48;;;;;;;;;;5119504;28;20047;-81
2023/07/18 10:32:33;;;;;;;7.05;2.30;;;;;;;;;;5124018;28;20051;-81
2023/07/18 10:35:00;;;;;;;10.88;2.30;;;;;;;;;;5120132;28;20051;-81
2023/07/18 10:37:30;;;;;;;7.53;2.17;;;;;;;;;;5118841;28;20073;-81
2023/07/18 10:39:58;;;;;;;9.38;2.13;;;;;;;;;;5116562;28;20043;-81
2023/07/18 10:42:28;;;;;;;4.68;1.33;;;;;;;;;;5114460;28;20048;-83
2023/07/18 10:44:57;;;;;;;1.55;1.45;;;;;;;;;;5114796;28;20411;-82
2023/07/18 10:47:25;;;;;;;1.63;1.52;;;;;;;;;;5115248;28;20059;-80
2023/07/18 10:49:52;;;;;;;5.45;1.63;;;;;;;;;;5116818;28;20487;-82
2023/07/18 10:52:21;;;;;;;1.67;1.10;;;;;;;;;;5117842;28;20464;-81
2023/07/18 10:54:51;;;;;;;2.75;1.30;;;;;;;;;;5121604;28;20093;-81
2023/07/18 10:57:24;;;;;;;2.42;1.40;;;;;;;;;;5123740;28;20043;-83
2023/07/18 10:59:51;;;;;;;5.40;1.60;;;;;;;;;;5122363;28;20047;-81
2023/07/18 11:02:19;;;;;;;2.83;1.30;;;;;;;;;;5123800;28;20102;-82
2023/07/18 11:04:47;;;;;;;6.60;1.77;;;;;;;;;;5122093;28;20047;-81
2023/07/18 11:07:15;;;;;;;1.70;1.20;;;;;;;;;;5123797;28;20052;-81
2023/07/18 11:09:42;;;;;;;1.42;1.23;;;;;;;;;;5120599;28;20047;-81
2023/07/18 11:12:16;;;;;;;3.40;1.10;;;;;;;;;;5120183;28;20069;-79
2023/07/18 11:14:44;;;;;;;1.88;1.50;;;;;;;;;;5120578;28;20522;-83
2023/07/18 11:17:18;;;;;;;3.63;1.35;;;;;;;;;;5118549;28;20044;-81
2023/07/18 11:19:47;;;;;;;1.38;1.10;;;;;;;;;;5119335;28;20496;-82
2023/07/18 11:22:15;;;;;;;1.60;1.40;;;;;;;;;;5117000;28;20522;-81
2023/07/18 11:24:45;;;;;;;2.55;1.13;;;;;;;;;;5119607;28;20440;-81
2023/07/18 11:27:14;;;;;;;4.43;1.27;;;;;;;;;;5117568;28;20044;-81
2023/07/18 11:29:49;;;;;;;15.85;2.58;;;;;;;;;;5117277;28;20043;-81
2023/07/18 11:32:29;;;;;;;2.60;1.40;;;;;;;;;;5117685;28;20047;-81
2023/07/18 11:35:00;;;;;;;1.65;1.40;;;;;;;;;;5116981;28;20422;-82
2023/07/18 11:37:27;;;;;;;1.77;1.67;;;;;;;;;;5116219;28;20043;-82
2023/07/18 11:40:00;;;;;;;2.55;1.50;;;;;;;;;;5116379;28;20040;-83
2023/07/18 11:42:47;;;;;;;1.70;1.60;;;;;;;;;;5115325;28;20047;-82
2023/07/18 11:45:18;;;;;;;3.85;1.40;;;;;;;;;;5118118;28;20044;-80
2023/07/18 11:47:55;;;;;;;1.75;1.17;;;;;;;;;;5116811;28;20086;-81
2023/07/18 11:50:25;;;;;;;4.32;1.38;;;;;;;;;;5116122;28;20054;-82
2023/07/18 11:52:56;;;;;;;1.50;1.40;;;;;;;;;;5117036;27;20120;-81
2023/07/18 11:55:24;;;;;;;15.02;3.42;;;;;;;;;;5118137;28;20073;-81
2023/07/18 11:57:51;;;;;;;4.20;1.40;;;;;;;;;;5116671;28;20085;-81
2023/07/18 12:00:19;;;;;;;2.10;1.23;;;;;;;;;;5117162;28;20093;-81
2023/07/18 12:02:47;;;;;;;4.45;1.88;;;;;;;;;;5118802;28;20132;-81
2023/07/18 12:05:15;;;;;;;1.67;1.55;;;;;;;;;;5114656;28;20077;-81
2023/07/18 12:07:47;;;;;;;2.90;1.42;;;;;;;;;;5116491;27;20437;-78
2023/07/18 12:10:15;;;;;;;1.30;1.20;;;;;;;;;;5116151;27;20055;-80
2023/07/18 12:12:42;;;;;;;3.92;1.38;;;;;;;;;;5114477;28;20056;-80
2023/07/18 12:15:11;;;;;;;2.35;1.50;;;;;;;;;;5115245;28;20070;-80
2023/07/18 12:17:38;;;;;;;3.50;1.38;;;;;;;;;;5115964;28;20400;-80
2023/07/18 12:20:07;;;;;;;1.88;1.50;;;;;;;;;;5115802;28;20044;-80
2023/07/18 12:22:34;;;;;;;6.63;1.40;;;;;;;;;;5114965;28;20055;-80
2023/07/18 12:25:03;;;;;;;2.47;1.42;;;;;;;;;;5115570;28;20052;-81
2023/07/18 12:27:30;;;;;;;2.05;1.10;;;;;;;;;;5114200;28;20093;-79
2023/07/18 12:29:57;;;;;;;2.08;1.42;;;;;;;;;;5115412;28;20055;-81
2023/07/18 12:32:24;;;;;;;4.15;1.80;;;;;;;;;;5116833;28;20046;-80
2023/07/18 12:34:57;;;;;;;3.10;1.40;;;;;;;;;;5123008;28;20542;-83
2023/07/18 12:37:24;;;;;;;3.42;1.73;;;;;;;;;;5122493;28;20492;-81
2023/07/18 12:39:52;;;;;;;6.35;1.75;;;;;;;;;;5120818;28;20043;-82
2023/07/18 12:42:19;;;;;;;1.55;1.45;;;;;;;;;;5120838;28;20058;-81
2023/07/18 12:44:46;;;;;;;3.88;1.50;;;;;;;;;;5118834;28;20043;-84
2023/07/18 12:47:14;;;;;;;1.45;1.35;;;;;;;;;;5116560;28;20073;-81
2023/07/18 12:49:42;;;;;;;3.50;1.60;;;;;;;;;;5122986;28;20051;-81
2023/07/18 12:52:12;;;;;;;2.08;1.33;;;;;;;;;;5123798;28;20052;-80
2023/07/18 12:54:40;;;;;;;1.60;1.33;;;;;;;;;;5120591;28;20109;-81
2023/07/18 12:57:07;;;;;;;1.40;1.27;;;;;;;;;;5120654;28;20054;-83
2023/07/18 12:59:35;;;;;;;3.60;1.45;;;;;;;;;;5121964;28;20093;-80
2023/07/18 13:02:02;;;;;;;4.50;1.45;;;;;;;;;;5123080;28;20476;-82
2023/07/18 13:04:29;;;;;;;6.03;1.60;;;;;;;;;;5119609;28;20495;-81
2023/07/18 13:06:57;;;;;;;7.95;2.42;;;;;;;;;;5121036;28;20058;-80
2023/07/18 13:09:24;;;;;;;1.60;1.50;;;;;;;;;;5120794;28;20500;-81
2023/07/18 13:11:52;;;;;;;1.33;1.10;;;;;;;;;;5119419;28;20510;-81
2023/07/18 13:14:22;;;;;;;2.30;1.38;;;;;;;;;;5117049;28;20048;-80
2023/07/18 13:16:50;;;;;;;1.63;1.25;;;;;;;;;;5115928;28;20056;-82
2023/07/18 13:19:17;;;;;;;1.52;1.40;;;;;;;;;;5117152;28;20071;-81
2023/07/18 13:21:45;;;;;;;2.58;1.42;;;;;;;;;;5116003;28;20507;-80
2023/07/18 13:24:12;;;;;;;4.13;1.50;;;;;;;;;;5116749;28;20040;-81
2023/07/18 13:26:41;;;;;;;6.43;1.88;;;;;;;;;;5117536;28;20055;-80
2023/07/18 13:29:08;;;;;;;1.73;1.30;;;;;;;;;;5115813;28;20055;-82
2023/07/18 13:31:35;;;;;;;1.50;1.40;;;;;;;;;;5115393;28;20047;-79
2023/07/18 13:34:03;;;;;;;1.52;1.30;;;;;;;;;;5115665;28;20050;-80
2023/07/18 13:36:31;;;;;;;1.75;1.45;;;;;;;;;;5117997;28;20047;-79
2023/07/18 13:38:58;;;;;;;4.30;1.52;;;;;;;;;;5116314;28;20456;-80
2023/07/18 13:41:25;;;;;;;3.53;1.40;;;;;;;;;;5115932;28;20495;-80
2023/07/18 13:43:53;;;;;;;1.60;1.40;;;;;;;;;;5115116;28;20097;-81
2023/07/18 13:46:20;;;;;;;2.33;1.75;;;;;;;;;;5115976;28;20044;-79
2023/07/18 13:48:48;;;;;;;1.80;1.48;;;;;;;;;;5115264;28;20044;-81
2023/07/18 13:51:15;;;;;;;1.98;1.55;;;;;;;;;;5117062;28;20097;-80
2023/07/18 13:53:43;;;;;;;1.45;1.35;;;;;;;;;;5114709;28;20184;-83
2023/07/18 13:56:10;;;;;;;3.03;1.80;;;;;;;;;;5115857;28;20077;-80
2023/07/18 13:58:37;;;;;;;1.95;1.58;;;;;;;;;;5114835;28;20048;-79
2023/07/18 14:01:05;;;;;;;3.90;1.55;;;;;;;;;;5115726;28;20051;-80
2023/07/18 14:03:32;;;;;;;2.28;1.42;;;;;;;;;;5114314;28;20408;-80
2023/07/18 14:06:02;;;;;;;3.70;1.65;;;;;;;;;;5113482;28;20086;-81
2023/07/18 14:08:30;;;;;;;2.58;1.67;;;;;;;;;;5115280;28;20465;-79
2023/07/18 14:10:58;;;;;;;4.40;1.55;;;;;;;;;;5110276;28;20052;-79
2023/07/18 14:13:25;;;;;;;1.45;1.35;;;;;;;;;;5107148;28;20051;-82
2023/07/18 14:15:52;;;;;;;2.15;1.45;;;;;;;;;;5119824;28;20073;-82
2023/07/18 14:18:19;;;;;;;2.13;1.40;;;;;;;;;;5119076;28;20483;-82
2023/07/18 14:20:47;;;;;;;1.92;1.70;;;;;;;;;;5123440;28;20043;-81
2023/07/18 14:23:14;;;;;;;1.45;1.30;;;;;;;;;;5122978;28;20052;-81
2023/07/18 14:25:41;;;;;;;4.35;1.60;;;;;;;;;;5122747;27;20047;-80
2023/07/18 14:28:08;;;;;;;2.10;1.50;;;;;;;;;;5121733;28;20408;-82
2023/07/18 14:30:36;;;;;;;3.13;1.77;;;;;;;;;;5119631;28;20182;-80
2023/07/18 14:33:03;;;;;;;2.22;1.50;;;;;;;;;;5119138;28;20047;-82
2023/07/18 14:35:32;;;;;;;1.73;1.60;;;;;;;;;;5118574;28;20055;-83
2023/07/18 14:38:00;;;;;;;3.30;1.60;;;;;;;;;;5119653;28;20044;-82
2023/07/18 14:40:27;;;;;;;8.45;1.80;;;;;;;;;;5118870;27;20058;-79
2023/07/18 14:42:54;;;;;;;11.35;1.77;;;;;;;;;;5117679;28;20056;-81
2023/07/18 14:45:22;;;;;;;1.20;1.10;;;;;;;;;;5117028;28;20101;-80
2023/07/18 14:47:49;;;;;;;2.10;1.23;;;;;;;;;;5116252;28;20047;-81
2023/07/18 14:50:16;;;;;;;2.22;1.45;;;;;;;;;;5116147;28;20043;-81